Mozyr, Belarus
Current Conditions -  °F | °C
As of 5:00 PM on Monday 24 Nov 2014 (Local Time) from UMGG Reporting Station
Clear Clear  
Wind Chill: 17°   Ceiling: Unl
Heat Index: 23°   Visibility: 6mi
Dew Point: 16°   Wind: 4mph
Humidity: 74%   Direction: NA
Pressure: 30.59"   Gusts: NA
Location:  52.05°N, 29.26°E
Report Text: UMGG 241500Z VRB02MPS 9000 NSC M05/M09 Q1036 R10/CLRD// NOSIG
Loading
Personal Weather Stations






























Interactive Weather Map New forecast layout! Learn more

10-Day Weather Forecast

Advertisements
Track Severe Weather on mobile